sensor_id;sensor_type;location;lat;lon;timestamp;P1;durP1;ratioP1;P2;durP2;ratioP2
25123;SDS011;13104;51.030;4.686;2023-01-28T00:01:10;12.55;;;9.27;;
25123;SDS011;13104;51.030;4.686;2023-01-28T00:03:37;13.07;;;9.18;;
25123;SDS011;13104;51.030;4.686;2023-01-28T00:06:06;13.93;;;9.77;;
25123;SDS011;13104;51.030;4.686;2023-01-28T00:08:33;10.88;;;8.50;;
25123;SDS011;13104;51.030;4.686;2023-01-28T00:10:59;13.07;;;9.27;;
25123;SDS011;13104;51.030;4.686;2023-01-28T00:13:26;14.30;;;9.82;;
25123;SDS011;13104;51.030;4.686;2023-01-28T00:15:58;12.25;;;9.13;;
25123;SDS011;13104;51.030;4.686;2023-01-28T00:18:27;13.13;;;8.90;;
25123;SDS011;13104;51.030;4.686;2023-01-28T00:20:57;11.50;;;8.77;;
25123;SDS011;13104;51.030;4.686;2023-01-28T00:23:24;12.00;;;8.80;;
25123;SDS011;13104;51.030;4.686;2023-01-28T00:25:51;13.65;;;9.88;;
25123;SDS011;13104;51.030;4.686;2023-01-28T00:28:18;11.85;;;8.52;;
25123;SDS011;13104;51.030;4.686;2023-01-28T00:30:44;13.30;;;9.43;;
25123;SDS011;13104;51.030;4.686;2023-01-28T00:33:10;13.27;;;9.82;;
25123;SDS011;13104;51.030;4.686;2023-01-28T00:35:37;13.02;;;9.35;;
25123;SDS011;13104;51.030;4.686;2023-01-28T00:38:03;13.70;;;9.73;;
25123;SDS011;13104;51.030;4.686;2023-01-28T00:40:30;14.77;;;10.18;;
25123;SDS011;13104;51.030;4.686;2023-01-28T00:42:56;13.40;;;10.30;;
25123;SDS011;13104;51.030;4.686;2023-01-28T00:45:23;17.65;;;11.73;;
25123;SDS011;13104;51.030;4.686;2023-01-28T00:47:49;17.50;;;10.77;;
25123;SDS011;13104;51.030;4.686;2023-01-28T00:50:15;15.93;;;11.82;;
25123;SDS011;13104;51.030;4.686;2023-01-28T00:52:41;15.88;;;11.50;;
25123;SDS011;13104;51.030;4.686;2023-01-28T00:55:08;16.58;;;11.90;;
25123;SDS011;13104;51.030;4.686;2023-01-28T00:57:34;16.75;;;11.73;;
25123;SDS011;13104;51.030;4.686;2023-01-28T01:00:00;20.05;;;11.85;;
25123;SDS011;13104;51.030;4.686;2023-01-28T01:02:27;19.33;;;12.63;;
25123;SDS011;13104;51.030;4.686;2023-01-28T01:04:53;19.05;;;12.80;;
25123;SDS011;13104;51.030;4.686;2023-01-28T01:07:28;19.05;;;11.82;;
25123;SDS011;13104;51.030;4.686;2023-01-28T01:10:15;17.98;;;12.07;;
25123;SDS011;13104;51.030;4.686;2023-01-28T01:12:42;19.73;;;13.02;;
25123;SDS011;13104;51.030;4.686;2023-01-28T01:15:08;16.77;;;11.60;;
25123;SDS011;13104;51.030;4.686;2023-01-28T01:17:39;18.42;;;12.48;;
25123;SDS011;13104;51.030;4.686;2023-01-28T01:20:06;18.02;;;12.50;;
25123;SDS011;13104;51.030;4.686;2023-01-28T01:22:33;17.83;;;12.20;;
25123;SDS011;13104;51.030;4.686;2023-01-28T01:25:00;19.80;;;12.60;;
25123;SDS011;13104;51.030;4.686;2023-01-28T01:27:27;22.40;;;13.02;;
25123;SDS011;13104;51.030;4.686;2023-01-28T01:29:54;18.55;;;12.00;;
25123;SDS011;13104;51.030;4.686;2023-01-28T01:32:20;18.23;;;11.93;;
25123;SDS011;13104;51.030;4.686;2023-01-28T01:34:46;20.30;;;13.50;;
25123;SDS011;13104;51.030;4.686;2023-01-28T01:37:13;20.60;;;12.90;;
25123;SDS011;13104;51.030;4.686;2023-01-28T01:39:39;20.25;;;12.43;;
25123;SDS011;13104;51.030;4.686;2023-01-28T01:42:07;19.50;;;13.02;;
25123;SDS011;13104;51.030;4.686;2023-01-28T01:47:20;18.42;;;12.18;;
25123;SDS011;13104;51.030;4.686;2023-01-28T01:49:47;19.70;;;12.63;;
25123;SDS011;13104;51.030;4.686;2023-01-28T01:52:17;18.13;;;12.10;;
25123;SDS011;13104;51.030;4.686;2023-01-28T01:54:46;20.05;;;12.73;;
25123;SDS011;13104;51.030;4.686;2023-01-28T01:57:14;19.27;;;13.02;;
25123;SDS011;13104;51.030;4.686;2023-01-28T01:59:41;20.90;;;12.75;;
25123;SDS011;13104;51.030;4.686;2023-01-28T02:02:08;19.65;;;12.30;;
25123;SDS011;13104;51.030;4.686;2023-01-28T02:04:35;22.92;;;13.18;;
25123;SDS011;13104;51.030;4.686;2023-01-28T02:07:03;19.73;;;12.02;;
25123;SDS011;13104;51.030;4.686;2023-01-28T02:09:30;19.42;;;12.55;;
25123;SDS011;13104;51.030;4.686;2023-01-28T02:12:01;22.77;;;13.45;;
25123;SDS011;13104;51.030;4.686;2023-01-28T02:14:30;19.80;;;12.82;;
25123;SDS011;13104;51.030;4.686;2023-01-28T02:16:58;18.60;;;11.77;;
25123;SDS011;13104;51.030;4.686;2023-01-28T02:19:26;19.65;;;12.65;;
25123;SDS011;13104;51.030;4.686;2023-01-28T02:22:09;19.13;;;12.18;;
25123;SDS011;13104;51.030;4.686;2023-01-28T02:24:51;21.63;;;12.95;;
25123;SDS011;13104;51.030;4.686;2023-01-28T02:30:10;21.45;;;13.15;;
25123;SDS011;13104;51.030;4.686;2023-01-28T02:32:42;19.42;;;11.88;;
25123;SDS011;13104;51.030;4.686;2023-01-28T02:37:40;20.70;;;12.95;;
25123;SDS011;13104;51.030;4.686;2023-01-28T02:40:09;22.13;;;12.98;;
25123;SDS011;13104;51.030;4.686;2023-01-28T02:42:36;19.17;;;12.07;;
25123;SDS011;13104;51.030;4.686;2023-01-28T02:45:06;21.65;;;12.73;;
25123;SDS011;13104;51.030;4.686;2023-01-28T02:47:37;19.98;;;12.73;;
25123;SDS011;13104;51.030;4.686;2023-01-28T02:50:21;19.88;;;11.95;;
25123;SDS011;13104;51.030;4.686;2023-01-28T03:01:14;19.77;;;11.77;;
25123;SDS011;13104;51.030;4.686;2023-01-28T03:06:05;19.35;;;11.77;;
25123;SDS011;13104;51.030;4.686;2023-01-28T03:11:38;19.80;;;12.52;;
25123;SDS011;13104;51.030;4.686;2023-01-28T03:14:24;19.38;;;11.90;;
25123;SDS011;13104;51.030;4.686;2023-01-28T03:17:21;21.58;;;12.13;;
25123;SDS011;13104;51.030;4.686;2023-01-28T03:20:08;20.77;;;12.45;;
25123;SDS011;13104;51.030;4.686;2023-01-28T03:25:38;19.88;;;11.93;;
25123;SDS011;13104;51.030;4.686;2023-01-28T03:28:24;20.92;;;11.95;;
25123;SDS011;13104;51.030;4.686;2023-01-28T03:31:10;17.92;;;11.73;;
25123;SDS011;13104;51.030;4.686;2023-01-28T03:33:56;19.77;;;12.60;;
25123;SDS011;13104;51.030;4.686;2023-01-28T03:36:42;18.42;;;12.13;;
25123;SDS011;13104;51.030;4.686;2023-01-28T03:39:18;21.93;;;12.07;;
25123;SDS011;13104;51.030;4.686;2023-01-28T03:44:42;17.70;;;11.68;;
25123;SDS011;13104;51.030;4.686;2023-01-28T03:47:18;19.50;;;11.95;;
25123;SDS011;13104;51.030;4.686;2023-01-28T03:49:45;18.67;;;12.38;;
25123;SDS011;13104;51.030;4.686;2023-01-28T03:52:13;19.73;;;12.07;;
25123;SDS011;13104;51.030;4.686;2023-01-28T03:54:39;17.45;;;11.35;;
25123;SDS011;13104;51.030;4.686;2023-01-28T03:57:06;22.10;;;12.98;;
25123;SDS011;13104;51.030;4.686;2023-01-28T03:59:32;19.38;;;13.00;;
25123;SDS011;13104;51.030;4.686;2023-01-28T04:01:59;20.27;;;12.27;;
25123;SDS011;13104;51.030;4.686;2023-01-28T04:04:27;20.15;;;12.65;;
25123;SDS011;13104;51.030;4.686;2023-01-28T04:06:55;19.15;;;12.15;;
25123;SDS011;13104;51.030;4.686;2023-01-28T04:09:21;17.65;;;11.65;;
25123;SDS011;13104;51.030;4.686;2023-01-28T04:11:47;18.25;;;11.93;;
25123;SDS011;13104;51.030;4.686;2023-01-28T04:14:15;18.08;;;11.38;;
25123;SDS011;13104;51.030;4.686;2023-01-28T04:16:44;18.33;;;11.20;;
25123;SDS011;13104;51.030;4.686;2023-01-28T04:19:11;18.92;;;12.15;;
25123;SDS011;13104;51.030;4.686;2023-01-28T04:21:37;18.48;;;12.20;;
25123;SDS011;13104;51.030;4.686;2023-01-28T04:24:04;17.05;;;11.57;;
25123;SDS011;13104;51.030;4.686;2023-01-28T04:26:30;18.25;;;11.23;;
25123;SDS011;13104;51.030;4.686;2023-01-28T04:28:56;19.23;;;11.75;;
25123;SDS011;13104;51.030;4.686;2023-01-28T04:31:22;20.92;;;11.95;;
25123;SDS011;13104;51.030;4.686;2023-01-28T04:33:49;17.40;;;11.43;;
25123;SDS011;13104;51.030;4.686;2023-01-28T04:36:15;20.38;;;11.32;;
25123;SDS011;13104;51.030;4.686;2023-01-28T04:38:41;18.55;;;11.25;;
25123;SDS011;13104;51.030;4.686;2023-01-28T04:41:07;18.25;;;11.95;;
25123;SDS011;13104;51.030;4.686;2023-01-28T04:43:33;18.23;;;11.68;;
25123;SDS011;13104;51.030;4.686;2023-01-28T04:46:00;17.35;;;11.13;;
25123;SDS011;13104;51.030;4.686;2023-01-28T04:48:26;18.02;;;11.82;;
25123;SDS011;13104;51.030;4.686;2023-01-28T04:50:54;18.90;;;11.68;;
25123;SDS011;13104;51.030;4.686;2023-01-28T04:53:20;19.95;;;11.38;;
25123;SDS011;13104;51.030;4.686;2023-01-28T04:55:46;17.90;;;11.07;;
25123;SDS011;13104;51.030;4.686;2023-01-28T04:58:13;19.05;;;10.80;;
25123;SDS011;13104;51.030;4.686;2023-01-28T05:00:39;16.02;;;10.38;;
25123;SDS011;13104;51.030;4.686;2023-01-28T05:03:05;19.05;;;11.68;;
25123;SDS011;13104;51.030;4.686;2023-01-28T05:05:31;17.08;;;11.25;;
25123;SDS011;13104;51.030;4.686;2023-01-28T05:07:57;16.25;;;10.98;;
25123;SDS011;13104;51.030;4.686;2023-01-28T05:10:24;17.75;;;10.82;;
25123;SDS011;13104;51.030;4.686;2023-01-28T05:12:50;17.38;;;11.48;;
25123;SDS011;13104;51.030;4.686;2023-01-28T05:15:17;15.70;;;10.55;;
25123;SDS011;13104;51.030;4.686;2023-01-28T05:17:44;19.27;;;11.18;;
25123;SDS011;13104;51.030;4.686;2023-01-28T05:20:11;16.02;;;10.85;;
25123;SDS011;13104;51.030;4.686;2023-01-28T05:22:37;16.98;;;11.13;;
25123;SDS011;13104;51.030;4.686;2023-01-28T05:25:04;16.70;;;11.23;;
25123;SDS011;13104;51.030;4.686;2023-01-28T05:27:31;17.58;;;11.10;;
25123;SDS011;13104;51.030;4.686;2023-01-28T05:29:57;17.10;;;11.48;;
25123;SDS011;13104;51.030;4.686;2023-01-28T05:32:24;16.45;;;11.32;;
25123;SDS011;13104;51.030;4.686;2023-01-28T05:34:50;16.88;;;10.95;;
25123;SDS011;13104;51.030;4.686;2023-01-28T05:37:17;16.10;;;10.88;;
25123;SDS011;13104;51.030;4.686;2023-01-28T05:39:43;16.00;;;11.05;;
25123;SDS011;13104;51.030;4.686;2023-01-28T05:42:10;16.63;;;10.90;;
25123;SDS011;13104;51.030;4.686;2023-01-28T05:44:36;15.60;;;10.50;;
25123;SDS011;13104;51.030;4.686;2023-01-28T05:47:02;14.55;;;9.73;;
25123;SDS011;13104;51.030;4.686;2023-01-28T05:49:28;16.73;;;10.80;;
25123;SDS011;13104;51.030;4.686;2023-01-28T05:51:54;15.05;;;10.15;;
25123;SDS011;13104;51.030;4.686;2023-01-28T05:54:20;15.38;;;10.27;;
25123;SDS011;13104;51.030;4.686;2023-01-28T05:56:46;15.98;;;10.65;;
25123;SDS011;13104;51.030;4.686;2023-01-28T05:59:13;16.98;;;10.40;;
25123;SDS011;13104;51.030;4.686;2023-01-28T06:01:39;16.67;;;10.85;;
25123;SDS011;13104;51.030;4.686;2023-01-28T06:04:06;14.55;;;9.60;;
25123;SDS011;13104;51.030;4.686;2023-01-28T06:06:32;16.55;;;9.88;;
25123;SDS011;13104;51.030;4.686;2023-01-28T06:08:58;16.50;;;10.60;;
25123;SDS011;13104;51.030;4.686;2023-01-28T06:11:24;14.30;;;9.55;;
25123;SDS011;13104;51.030;4.686;2023-01-28T06:13:51;15.30;;;9.98;;
25123;SDS011;13104;51.030;4.686;2023-01-28T06:16:18;16.02;;;10.43;;
25123;SDS011;13104;51.030;4.686;2023-01-28T06:18:44;15.60;;;10.13;;
25123;SDS011;13104;51.030;4.686;2023-01-28T06:21:10;17.40;;;11.40;;
25123;SDS011;13104;51.030;4.686;2023-01-28T06:23:36;16.52;;;11.30;;
25123;SDS011;13104;51.030;4.686;2023-01-28T06:26:02;18.50;;;11.45;;
25123;SDS011;13104;51.030;4.686;2023-01-28T06:28:28;18.70;;;10.82;;
25123;SDS011;13104;51.030;4.686;2023-01-28T06:30:55;16.98;;;10.85;;
25123;SDS011;13104;51.030;4.686;2023-01-28T06:33:21;17.10;;;10.65;;
25123;SDS011;13104;51.030;4.686;2023-01-28T06:35:48;15.32;;;11.10;;
25123;SDS011;13104;51.030;4.686;2023-01-28T06:38:14;18.13;;;11.68;;
25123;SDS011;13104;51.030;4.686;2023-01-28T06:40:40;19.90;;;13.93;;
25123;SDS011;13104;51.030;4.686;2023-01-28T06:43:06;21.98;;;13.25;;
25123;SDS011;13104;51.030;4.686;2023-01-28T06:45:32;20.27;;;13.23;;
25123;SDS011;13104;51.030;4.686;2023-01-28T06:47:58;20.95;;;13.77;;
25123;SDS011;13104;51.030;4.686;2023-01-28T06:50:25;19.77;;;13.05;;
25123;SDS011;13104;51.030;4.686;2023-01-28T06:52:51;19.67;;;12.65;;
25123;SDS011;13104;51.030;4.686;2023-01-28T06:55:17;20.20;;;13.05;;
25123;SDS011;13104;51.030;4.686;2023-01-28T06:57:43;21.55;;;13.35;;
25123;SDS011;13104;51.030;4.686;2023-01-28T07:00:10;21.27;;;13.50;;
25123;SDS011;13104;51.030;4.686;2023-01-28T07:02:37;21.73;;;12.82;;
25123;SDS011;13104;51.030;4.686;2023-01-28T07:05:03;20.50;;;13.45;;
25123;SDS011;13104;51.030;4.686;2023-01-28T07:07:29;20.38;;;13.32;;
25123;SDS011;13104;51.030;4.686;2023-01-28T07:09:55;21.98;;;13.25;;
25123;SDS011;13104;51.030;4.686;2023-01-28T07:12:22;22.40;;;12.98;;
25123;SDS011;13104;51.030;4.686;2023-01-28T07:14:48;21.25;;;13.43;;
25123;SDS011;13104;51.030;4.686;2023-01-28T07:17:14;21.17;;;13.45;;
25123;SDS011;13104;51.030;4.686;2023-01-28T07:19:40;23.20;;;12.93;;
25123;SDS011;13104;51.030;4.686;2023-01-28T07:22:06;18.23;;;12.52;;
25123;SDS011;13104;51.030;4.686;2023-01-28T07:24:33;22.23;;;13.10;;
25123;SDS011;13104;51.030;4.686;2023-01-28T07:26:59;18.90;;;12.82;;
25123;SDS011;13104;51.030;4.686;2023-01-28T07:29:25;21.80;;;13.32;;
25123;SDS011;13104;51.030;4.686;2023-01-28T07:31:51;24.80;;;14.80;;
25123;SDS011;13104;51.030;4.686;2023-01-28T07:34:17;22.00;;;14.50;;
25123;SDS011;13104;51.030;4.686;2023-01-28T07:36:43;23.58;;;14.88;;
25123;SDS011;13104;51.030;4.686;2023-01-28T07:39:09;23.05;;;15.40;;
25123;SDS011;13104;51.030;4.686;2023-01-28T07:41:36;23.35;;;14.68;;
25123;SDS011;13104;51.030;4.686;2023-01-28T07:44:02;22.98;;;14.95;;
25123;SDS011;13104;51.030;4.686;2023-01-28T07:46:28;22.75;;;14.93;;
25123;SDS011;13104;51.030;4.686;2023-01-28T07:48:54;22.67;;;14.43;;
25123;SDS011;13104;51.030;4.686;2023-01-28T07:51:20;22.83;;;14.02;;
25123;SDS011;13104;51.030;4.686;2023-01-28T07:53:46;23.98;;;14.50;;
25123;SDS011;13104;51.030;4.686;2023-01-28T07:56:12;22.70;;;13.35;;
25123;SDS011;13104;51.030;4.686;2023-01-28T07:58:39;21.25;;;13.07;;
25123;SDS011;13104;51.030;4.686;2023-01-28T08:01:05;23.52;;;13.82;;
25123;SDS011;13104;51.030;4.686;2023-01-28T08:03:31;24.85;;;14.70;;
25123;SDS011;13104;51.030;4.686;2023-01-28T08:05:58;25.70;;;14.82;;
25123;SDS011;13104;51.030;4.686;2023-01-28T08:08:24;22.77;;;14.07;;
25123;SDS011;13104;51.030;4.686;2023-01-28T08:10:54;26.75;;;16.05;;
25123;SDS011;13104;51.030;4.686;2023-01-28T08:13:20;24.17;;;15.48;;
25123;SDS011;13104;51.030;4.686;2023-01-28T08:15:46;24.67;;;15.00;;
25123;SDS011;13104;51.030;4.686;2023-01-28T08:18:14;26.58;;;16.10;;
25123;SDS011;13104;51.030;4.686;2023-01-28T08:20:40;25.38;;;16.85;;
25123;SDS011;13104;51.030;4.686;2023-01-28T08:23:15;24.27;;;15.73;;
25123;SDS011;13104;51.030;4.686;2023-01-28T08:25:41;25.67;;;15.80;;
25123;SDS011;13104;51.030;4.686;2023-01-28T08:28:08;25.75;;;15.38;;
25123;SDS011;13104;51.030;4.686;2023-01-28T08:30:34;27.33;;;14.95;;
25123;SDS011;13104;51.030;4.686;2023-01-28T08:33:02;20.85;;;14.10;;
25123;SDS011;13104;51.030;4.686;2023-01-28T08:35:29;20.45;;;13.18;;
25123;SDS011;13104;51.030;4.686;2023-01-28T08:37:57;21.27;;;13.27;;
25123;SDS011;13104;51.030;4.686;2023-01-28T08:40:24;19.08;;;12.90;;
25123;SDS011;13104;51.030;4.686;2023-01-28T08:42:50;22.08;;;13.38;;
25123;SDS011;13104;51.030;4.686;2023-01-28T08:45:18;21.15;;;12.98;;
25123;SDS011;13104;51.030;4.686;2023-01-28T08:50:19;21.50;;;13.52;;
25123;SDS011;13104;51.030;4.686;2023-01-28T08:52:45;23.85;;;14.30;;
25123;SDS011;13104;51.030;4.686;2023-01-28T08:55:13;21.25;;;13.65;;
25123;SDS011;13104;51.030;4.686;2023-01-28T08:57:40;21.40;;;13.82;;
25123;SDS011;13104;51.030;4.686;2023-01-28T09:00:06;23.52;;;14.32;;
25123;SDS011;13104;51.030;4.686;2023-01-28T09:02:35;23.42;;;15.02;;
25123;SDS011;13104;51.030;4.686;2023-01-28T09:05:01;22.23;;;14.13;;
25123;SDS011;13104;51.030;4.686;2023-01-28T09:07:27;25.23;;;15.27;;
25123;SDS011;13104;51.030;4.686;2023-01-28T09:09:53;27.45;;;15.45;;
25123;SDS011;13104;51.030;4.686;2023-01-28T09:12:19;25.23;;;14.95;;
25123;SDS011;13104;51.030;4.686;2023-01-28T09:14:46;26.00;;;15.90;;
25123;SDS011;13104;51.030;4.686;2023-01-28T09:17:12;27.33;;;16.15;;
25123;SDS011;13104;51.030;4.686;2023-01-28T09:19:38;26.52;;;16.30;;
25123;SDS011;13104;51.030;4.686;2023-01-28T09:22:04;25.27;;;15.80;;
25123;SDS011;13104;51.030;4.686;2023-01-28T09:24:31;28.20;;;16.73;;
25123;SDS011;13104;51.030;4.686;2023-01-28T09:26:57;26.88;;;16.83;;
25123;SDS011;13104;51.030;4.686;2023-01-28T09:29:23;26.70;;;16.17;;
25123;SDS011;13104;51.030;4.686;2023-01-28T09:31:49;27.60;;;16.65;;
25123;SDS011;13104;51.030;4.686;2023-01-28T09:34:15;21.48;;;13.95;;
25123;SDS011;13104;51.030;4.686;2023-01-28T09:36:42;24.13;;;14.80;;
25123;SDS011;13104;51.030;4.686;2023-01-28T09:39:08;20.90;;;13.80;;
25123;SDS011;13104;51.030;4.686;2023-01-28T09:44:05;23.33;;;15.25;;
25123;SDS011;13104;51.030;4.686;2023-01-28T09:46:35;25.75;;;15.57;;
25123;SDS011;13104;51.030;4.686;2023-01-28T09:49:04;25.02;;;14.75;;
25123;SDS011;13104;51.030;4.686;2023-01-28T09:51:39;24.33;;;15.88;;
25123;SDS011;13104;51.030;4.686;2023-01-28T09:54:16;26.38;;;16.55;;
25123;SDS011;13104;51.030;4.686;2023-01-28T09:56:46;25.17;;;15.55;;
25123;SDS011;13104;51.030;4.686;2023-01-28T09:59:18;24.52;;;15.13;;
25123;SDS011;13104;51.030;4.686;2023-01-28T10:01:59;24.52;;;15.13;;
25123;SDS011;13104;51.030;4.686;2023-01-28T10:15:16;26.40;;;15.40;;
25123;SDS011;13104;51.030;4.686;2023-01-28T10:20:13;22.85;;;14.65;;
25123;SDS011;13104;51.030;4.686;2023-01-28T10:22:43;26.80;;;15.85;;
25123;SDS011;13104;51.030;4.686;2023-01-28T10:25:17;25.92;;;15.95;;
25123;SDS011;13104;51.030;4.686;2023-01-28T10:27:44;25.20;;;15.20;;
25123;SDS011;13104;51.030;4.686;2023-01-28T10:32:45;21.83;;;13.63;;
25123;SDS011;13104;51.030;4.686;2023-01-28T10:35:14;21.10;;;13.52;;
25123;SDS011;13104;51.030;4.686;2023-01-28T10:37:40;24.08;;;13.45;;
25123;SDS011;13104;51.030;4.686;2023-01-28T10:40:06;23.10;;;14.48;;
25123;SDS011;13104;51.030;4.686;2023-01-28T10:42:37;26.00;;;14.82;;
25123;SDS011;13104;51.030;4.686;2023-01-28T10:47:34;25.63;;;15.35;;
25123;SDS011;13104;51.030;4.686;2023-01-28T10:50:03;23.90;;;15.23;;
25123;SDS011;13104;51.030;4.686;2023-01-28T10:52:29;22.75;;;14.57;;
25123;SDS011;13104;51.030;4.686;2023-01-28T10:54:59;20.98;;;13.68;;
25123;SDS011;13104;51.030;4.686;2023-01-28T10:57:27;21.38;;;13.73;;
25123;SDS011;13104;51.030;4.686;2023-01-28T10:59:53;22.85;;;13.77;;
25123;SDS011;13104;51.030;4.686;2023-01-28T11:04:58;22.05;;;14.43;;
25123;SDS011;13104;51.030;4.686;2023-01-28T11:07:25;22.67;;;14.55;;
25123;SDS011;13104;51.030;4.686;2023-01-28T11:09:51;23.08;;;14.40;;
25123;SDS011;13104;51.030;4.686;2023-01-28T11:12:21;24.77;;;16.00;;
25123;SDS011;13104;51.030;4.686;2023-01-28T11:14:49;27.48;;;15.85;;
25123;SDS011;13104;51.030;4.686;2023-01-28T11:17:15;28.65;;;17.20;;
25123;SDS011;13104;51.030;4.686;2023-01-28T11:19:42;25.55;;;16.10;;
25123;SDS011;13104;51.030;4.686;2023-01-28T11:22:13;23.67;;;14.63;;
25123;SDS011;13104;51.030;4.686;2023-01-28T11:24:47;25.67;;;16.25;;
25123;SDS011;13104;51.030;4.686;2023-01-28T11:27:16;24.02;;;15.40;;
25123;SDS011;13104;51.030;4.686;2023-01-28T11:29:43;23.95;;;15.20;;
25123;SDS011;13104;51.030;4.686;2023-01-28T11:32:16;22.83;;;14.13;;
25123;SDS011;13104;51.030;4.686;2023-01-28T11:34:50;17.83;;;10.70;;
25123;SDS011;13104;51.030;4.686;2023-01-28T11:37:18;25.98;;;15.30;;
25123;SDS011;13104;51.030;4.686;2023-01-28T11:39:45;24.27;;;14.95;;
25123;SDS011;13104;51.030;4.686;2023-01-28T11:42:14;28.02;;;15.95;;
25123;SDS011;13104;51.030;4.686;2023-01-28T11:44:41;26.77;;;16.25;;
25123;SDS011;13104;51.030;4.686;2023-01-28T11:57:23;34.38;;;17.77;;
25123;SDS011;13104;51.030;4.686;2023-01-28T12:07:36;25.95;;;16.15;;
25123;SDS011;13104;51.030;4.686;2023-01-28T12:15:44;24.55;;;15.32;;
25123;SDS011;13104;51.030;4.686;2023-01-28T12:23:34;22.73;;;15.05;;
25123;SDS011;13104;51.030;4.686;2023-01-28T12:26:06;24.65;;;15.02;;
25123;SDS011;13104;51.030;4.686;2023-01-28T12:31:07;22.52;;;14.55;;
25123;SDS011;13104;51.030;4.686;2023-01-28T12:38:53;18.75;;;9.93;;
25123;SDS011;13104;51.030;4.686;2023-01-28T12:41:27;21.98;;;12.65;;
25123;SDS011;13104;51.030;4.686;2023-01-28T12:44:01;22.42;;;13.20;;
25123;SDS011;13104;51.030;4.686;2023-01-28T12:46:53;22.80;;;13.40;;
25123;SDS011;13104;51.030;4.686;2023-01-28T12:49:24;20.13;;;13.00;;
25123;SDS011;13104;51.030;4.686;2023-01-28T12:54:24;25.88;;;13.18;;
25123;SDS011;13104;51.030;4.686;2023-01-28T12:56:52;21.02;;;13.10;;
25123;SDS011;13104;51.030;4.686;2023-01-28T13:01:56;22.20;;;12.98;;
25123;SDS011;13104;51.030;4.686;2023-01-28T13:07:04;21.60;;;13.07;;
25123;SDS011;13104;51.030;4.686;2023-01-28T13:09:31;20.73;;;12.45;;
25123;SDS011;13104;51.030;4.686;2023-01-28T13:11:59;21.08;;;12.93;;
25123;SDS011;13104;51.030;4.686;2023-01-28T13:14:29;20.52;;;12.10;;
25123;SDS011;13104;51.030;4.686;2023-01-28T13:16:56;20.60;;;12.40;;
25123;SDS011;13104;51.030;4.686;2023-01-28T13:19:37;20.40;;;12.68;;
25123;SDS011;13104;51.030;4.686;2023-01-28T13:22:10;20.00;;;12.00;;
25123;SDS011;13104;51.030;4.686;2023-01-28T13:24:37;16.43;;;9.47;;
25123;SDS011;13104;51.030;4.686;2023-01-28T13:27:10;17.40;;;12.07;;
25123;SDS011;13104;51.030;4.686;2023-01-28T13:29:37;18.80;;;12.30;;
25123;SDS011;13104;51.030;4.686;2023-01-28T13:32:23;17.27;;;11.25;;
25123;SDS011;13104;51.030;4.686;2023-01-28T13:34:56;19.00;;;11.98;;
25123;SDS011;13104;51.030;4.686;2023-01-28T13:39:50;17.70;;;11.30;;
25123;SDS011;13104;51.030;4.686;2023-01-28T13:42:27;17.15;;;11.30;;
25123;SDS011;13104;51.030;4.686;2023-01-28T13:44:54;18.77;;;11.23;;
25123;SDS011;13104;51.030;4.686;2023-01-28T13:47:25;20.90;;;11.00;;
25123;SDS011;13104;51.030;4.686;2023-01-28T13:50:05;20.02;;;11.65;;
25123;SDS011;13104;51.030;4.686;2023-01-28T13:52:54;16.73;;;10.77;;
25123;SDS011;13104;51.030;4.686;2023-01-28T13:55:19;21.00;;;11.57;;
25123;SDS011;13104;51.030;4.686;2023-01-28T14:10:41;20.77;;;12.20;;
25123;SDS011;13104;51.030;4.686;2023-01-28T14:15:43;21.05;;;11.35;;
25123;SDS011;13104;51.030;4.686;2023-01-28T14:18:14;18.58;;;11.13;;
25123;SDS011;13104;51.030;4.686;2023-01-28T14:20:43;18.95;;;11.48;;
25123;SDS011;13104;51.030;4.686;2023-01-28T14:23:13;20.75;;;11.70;;
25123;SDS011;13104;51.030;4.686;2023-01-28T14:28:14;18.42;;;11.57;;
25123;SDS011;13104;51.030;4.686;2023-01-28T14:31:25;20.58;;;11.25;;
25123;SDS011;13104;51.030;4.686;2023-01-28T14:33:33;17.88;;;11.15;;
25123;SDS011;13104;51.030;4.686;2023-01-28T14:36:00;19.05;;;10.90;;
25123;SDS011;13104;51.030;4.686;2023-01-28T14:38:26;18.83;;;11.73;;
25123;SDS011;13104;51.030;4.686;2023-01-28T14:40:53;20.00;;;12.15;;
25123;SDS011;13104;51.030;4.686;2023-01-28T14:43:21;23.52;;;12.98;;
25123;SDS011;13104;51.030;4.686;2023-01-28T14:48:37;18.52;;;11.40;;
25123;SDS011;13104;51.030;4.686;2023-01-28T14:54:06;18.23;;;11.07;;
25123;SDS011;13104;51.030;4.686;2023-01-28T14:59:19;18.92;;;10.07;;
25123;SDS011;13104;51.030;4.686;2023-01-28T15:01:47;16.95;;;10.77;;
25123;SDS011;13104;51.030;4.686;2023-01-28T15:04:27;20.52;;;11.20;;
25123;SDS011;13104;51.030;4.686;2023-01-28T15:06:53;20.30;;;11.75;;
25123;SDS011;13104;51.030;4.686;2023-01-28T15:09:20;17.13;;;10.77;;
25123;SDS011;13104;51.030;4.686;2023-01-28T15:11:47;19.65;;;11.00;;
25123;SDS011;13104;51.030;4.686;2023-01-28T15:14:17;20.10;;;11.40;;
25123;SDS011;13104;51.030;4.686;2023-01-28T15:16:48;17.25;;;11.23;;
25123;SDS011;13104;51.030;4.686;2023-01-28T15:19:14;17.67;;;11.63;;
25123;SDS011;13104;51.030;4.686;2023-01-28T15:21:42;19.17;;;11.70;;
25123;SDS011;13104;51.030;4.686;2023-01-28T15:24:09;18.25;;;11.45;;
25123;SDS011;13104;51.030;4.686;2023-01-28T15:26:37;18.92;;;11.38;;
25123;SDS011;13104;51.030;4.686;2023-01-28T15:29:03;19.20;;;11.25;;
25123;SDS011;13104;51.030;4.686;2023-01-28T15:31:30;16.60;;;10.00;;
25123;SDS011;13104;51.030;4.686;2023-01-28T15:36:23;16.83;;;10.52;;
25123;SDS011;13104;51.030;4.686;2023-01-28T15:38:51;18.08;;;11.07;;
25123;SDS011;13104;51.030;4.686;2023-01-28T15:41:17;17.33;;;11.20;;
25123;SDS011;13104;51.030;4.686;2023-01-28T15:43:45;17.10;;;10.55;;
25123;SDS011;13104;51.030;4.686;2023-01-28T15:46:12;18.70;;;11.32;;
25123;SDS011;13104;51.030;4.686;2023-01-28T15:48:40;16.80;;;11.13;;
25123;SDS011;13104;51.030;4.686;2023-01-28T15:51:08;19.67;;;11.70;;
25123;SDS011;13104;51.030;4.686;2023-01-28T15:53:43;17.83;;;10.52;;
25123;SDS011;13104;51.030;4.686;2023-01-28T15:56:11;16.90;;;10.57;;
25123;SDS011;13104;51.030;4.686;2023-01-28T15:58:37;18.05;;;11.02;;
25123;SDS011;13104;51.030;4.686;2023-01-28T16:03:34;19.05;;;11.23;;
25123;SDS011;13104;51.030;4.686;2023-01-28T16:08:28;19.25;;;10.35;;
25123;SDS011;13104;51.030;4.686;2023-01-28T16:10:58;20.08;;;11.05;;
25123;SDS011;13104;51.030;4.686;2023-01-28T16:13:25;18.60;;;11.10;;
25123;SDS011;13104;51.030;4.686;2023-01-28T16:15:53;17.17;;;10.63;;
25123;SDS011;13104;51.030;4.686;2023-01-28T16:18:25;18.27;;;11.40;;
25123;SDS011;13104;51.030;4.686;2023-01-28T16:20:53;17.73;;;10.98;;
25123;SDS011;13104;51.030;4.686;2023-01-28T16:23:21;20.17;;;11.43;;
25123;SDS011;13104;51.030;4.686;2023-01-28T16:25:57;20.10;;;12.20;;
25123;SDS011;13104;51.030;4.686;2023-01-28T16:28:24;19.17;;;11.35;;
25123;SDS011;13104;51.030;4.686;2023-01-28T16:30:50;20.50;;;12.02;;
25123;SDS011;13104;51.030;4.686;2023-01-28T16:33:20;18.10;;;11.48;;
25123;SDS011;13104;51.030;4.686;2023-01-28T16:35:46;18.55;;;11.25;;
25123;SDS011;13104;51.030;4.686;2023-01-28T16:38:13;17.23;;;11.10;;
25123;SDS011;13104;51.030;4.686;2023-01-28T16:40:42;20.50;;;11.65;;
25123;SDS011;13104;51.030;4.686;2023-01-28T16:43:10;20.83;;;11.68;;
25123;SDS011;13104;51.030;4.686;2023-01-28T16:45:37;22.58;;;12.07;;